sensor_id;sensor_type;location;lat;lon;timestamp;temperature;humidity
8715;DHT22;4394;51.208;8.904;2022-07-29T00:01:14;19.50;69.70
8715;DHT22;4394;51.208;8.904;2022-07-29T00:04:05;19.50;70.40
8715;DHT22;4394;51.208;8.904;2022-07-29T00:06:54;19.40;70.60
8715;DHT22;4394;51.208;8.904;2022-07-29T00:09:42;19.40;70.80
8715;DHT22;4394;51.208;8.904;2022-07-29T00:12:37;19.40;71.70
8715;DHT22;4394;51.208;8.904;2022-07-29T00:15:28;19.40;71.90
8715;DHT22;4394;51.208;8.904;2022-07-29T00:18:16;19.30;71.70
8715;DHT22;4394;51.208;8.904;2022-07-29T00:21:04;19.30;71.70
8715;DHT22;4394;51.208;8.904;2022-07-29T00:23:53;19.30;72.40
8715;DHT22;4394;51.208;8.904;2022-07-29T00:26:41;19.20;72.20
8715;DHT22;4394;51.208;8.904;2022-07-29T00:29:29;19.20;72.40
8715;DHT22;4394;51.208;8.904;2022-07-29T00:32:22;19.20;72.50
8715;DHT22;4394;51.208;8.904;2022-07-29T00:35:11;19.20;72.40
8715;DHT22;4394;51.208;8.904;2022-07-29T00:38:18;19.20;73.50
8715;DHT22;4394;51.208;8.904;2022-07-29T00:41:07;19.10;73.50
8715;DHT22;4394;51.208;8.904;2022-07-29T00:43:55;19.10;73.70
8715;DHT22;4394;51.208;8.904;2022-07-29T00:46:43;19.00;74.40
8715;DHT22;4394;51.208;8.904;2022-07-29T00:49:34;19.00;74.90
8715;DHT22;4394;51.208;8.904;2022-07-29T00:52:22;18.90;75.40
8715;DHT22;4394;51.208;8.904;2022-07-29T00:55:12;18.80;76.10
8715;DHT22;4394;51.208;8.904;2022-07-29T00:58:00;18.80;76.80
8715;DHT22;4394;51.208;8.904;2022-07-29T01:00:48;18.70;77.40
8715;DHT22;4394;51.208;8.904;2022-07-29T01:03:37;18.70;79.00
8715;DHT22;4394;51.208;8.904;2022-07-29T01:06:27;18.60;79.10
8715;DHT22;4394;51.208;8.904;2022-07-29T01:09:18;18.60;79.80
8715;DHT22;4394;51.208;8.904;2022-07-29T01:12:28;18.50;80.20
8715;DHT22;4394;51.208;8.904;2022-07-29T01:15:19;18.50;80.50
8715;DHT22;4394;51.208;8.904;2022-07-29T01:18:15;18.40;81.10
8715;DHT22;4394;51.208;8.904;2022-07-29T01:24:52;18.30;82.50
8715;DHT22;4394;51.208;8.904;2022-07-29T01:28:00;18.20;83.30
8715;DHT22;4394;51.208;8.904;2022-07-29T01:30:51;18.20;84.00
8715;DHT22;4394;51.208;8.904;2022-07-29T01:33:45;18.10;84.10
8715;DHT22;4394;51.208;8.904;2022-07-29T01:36:44;18.10;84.40
8715;DHT22;4394;51.208;8.904;2022-07-29T01:39:36;18.10;84.50
8715;DHT22;4394;51.208;8.904;2022-07-29T01:42:29;18.10;84.50
8715;DHT22;4394;51.208;8.904;2022-07-29T01:45:21;18.10;84.50
8715;DHT22;4394;51.208;8.904;2022-07-29T01:48:15;18.00;85.80
8715;DHT22;4394;51.208;8.904;2022-07-29T01:51:07;18.00;86.00
8715;DHT22;4394;51.208;8.904;2022-07-29T01:54:02;18.00;86.50
8715;DHT22;4394;51.208;8.904;2022-07-29T01:56:55;18.00;87.10
8715;DHT22;4394;51.208;8.904;2022-07-29T01:59:46;17.90;87.60
8715;DHT22;4394;51.208;8.904;2022-07-29T02:02:36;17.90;87.80
8715;DHT22;4394;51.208;8.904;2022-07-29T02:05:29;17.90;88.20
8715;DHT22;4394;51.208;8.904;2022-07-29T02:08:19;17.80;88.70
8715;DHT22;4394;51.208;8.904;2022-07-29T02:11:08;17.80;88.60
8715;DHT22;4394;51.208;8.904;2022-07-29T02:13:58;17.80;88.60
8715;DHT22;4394;51.208;8.904;2022-07-29T02:16:51;17.70;89.20
8715;DHT22;4394;51.208;8.904;2022-07-29T02:19:41;17.70;88.90
8715;DHT22;4394;51.208;8.904;2022-07-29T02:22:36;17.70;89.90
8715;DHT22;4394;51.208;8.904;2022-07-29T02:25:26;17.70;90.20
8715;DHT22;4394;51.208;8.904;2022-07-29T02:28:25;17.70;90.10
8715;DHT22;4394;51.208;8.904;2022-07-29T02:31:17;17.70;90.40
8715;DHT22;4394;51.208;8.904;2022-07-29T02:34:08;17.60;90.60
8715;DHT22;4394;51.208;8.904;2022-07-29T02:37:00;17.70;91.00
8715;DHT22;4394;51.208;8.904;2022-07-29T02:39:52;17.60;91.10
8715;DHT22;4394;51.208;8.904;2022-07-29T02:42:42;17.60;91.70
8715;DHT22;4394;51.208;8.904;2022-07-29T02:45:32;17.60;91.50
8715;DHT22;4394;51.208;8.904;2022-07-29T02:48:26;17.60;91.70
8715;DHT22;4394;51.208;8.904;2022-07-29T02:51:19;17.70;91.80
8715;DHT22;4394;51.208;8.904;2022-07-29T02:54:36;17.60;91.70
8715;DHT22;4394;51.208;8.904;2022-07-29T02:57:32;17.60;91.90
8715;DHT22;4394;51.208;8.904;2022-07-29T03:00:40;17.50;92.40
8715;DHT22;4394;51.208;8.904;2022-07-29T03:03:34;17.40;92.20
8715;DHT22;4394;51.208;8.904;2022-07-29T03:06:25;17.30;92.90
8715;DHT22;4394;51.208;8.904;2022-07-29T03:09:25;17.30;93.30
8715;DHT22;4394;51.208;8.904;2022-07-29T03:12:14;17.20;93.50
8715;DHT22;4394;51.208;8.904;2022-07-29T03:15:06;17.10;93.80
8715;DHT22;4394;51.208;8.904;2022-07-29T03:17:55;17.10;93.90
8715;DHT22;4394;51.208;8.904;2022-07-29T03:20:44;17.10;94.00
8715;DHT22;4394;51.208;8.904;2022-07-29T03:23:33;17.10;94.20
8715;DHT22;4394;51.208;8.904;2022-07-29T03:26:22;17.10;94.40
8715;DHT22;4394;51.208;8.904;2022-07-29T03:29:11;17.20;94.80
8715;DHT22;4394;51.208;8.904;2022-07-29T03:32:02;17.30;95.10
8715;DHT22;4394;51.208;8.904;2022-07-29T03:34:54;17.20;95.20
8715;DHT22;4394;51.208;8.904;2022-07-29T03:37:42;17.10;95.20
8715;DHT22;4394;51.208;8.904;2022-07-29T03:40:37;17.20;94.90
8715;DHT22;4394;51.208;8.904;2022-07-29T03:43:28;17.20;95.00
8715;DHT22;4394;51.208;8.904;2022-07-29T03:46:20;17.20;94.90
8715;DHT22;4394;51.208;8.904;2022-07-29T03:49:12;17.20;95.20
8715;DHT22;4394;51.208;8.904;2022-07-29T03:52:03;17.20;95.40
8715;DHT22;4394;51.208;8.904;2022-07-29T03:54:52;17.20;95.20
8715;DHT22;4394;51.208;8.904;2022-07-29T03:57:42;17.30;95.20
8715;DHT22;4394;51.208;8.904;2022-07-29T04:00:32;17.30;95.10
8715;DHT22;4394;51.208;8.904;2022-07-29T04:03:22;17.30;95.00
8715;DHT22;4394;51.208;8.904;2022-07-29T04:06:12;17.30;94.90
8715;DHT22;4394;51.208;8.904;2022-07-29T04:09:00;17.30;95.20
8715;DHT22;4394;51.208;8.904;2022-07-29T04:11:50;17.30;94.80
8715;DHT22;4394;51.208;8.904;2022-07-29T04:14:50;17.30;94.80
8715;DHT22;4394;51.208;8.904;2022-07-29T04:17:38;17.30;94.80
8715;DHT22;4394;51.208;8.904;2022-07-29T04:20:31;17.30;94.80
8715;DHT22;4394;51.208;8.904;2022-07-29T04:23:21;17.30;94.80
8715;DHT22;4394;51.208;8.904;2022-07-29T04:26:10;17.30;94.90
8715;DHT22;4394;51.208;8.904;2022-07-29T04:28:58;17.30;95.00
8715;DHT22;4394;51.208;8.904;2022-07-29T04:31:47;17.40;95.40
8715;DHT22;4394;51.208;8.904;2022-07-29T04:34:36;17.40;95.60
8715;DHT22;4394;51.208;8.904;2022-07-29T04:37:24;17.40;95.60
8715;DHT22;4394;51.208;8.904;2022-07-29T04:40:14;17.40;95.50
8715;DHT22;4394;51.208;8.904;2022-07-29T04:43:03;17.40;95.50
8715;DHT22;4394;51.208;8.904;2022-07-29T04:45:51;17.40;95.70
8715;DHT22;4394;51.208;8.904;2022-07-29T04:48:40;17.40;95.90
8715;DHT22;4394;51.208;8.904;2022-07-29T04:51:28;17.50;96.50
8715;DHT22;4394;51.208;8.904;2022-07-29T04:54:20;17.50;96.00
8715;DHT22;4394;51.208;8.904;2022-07-29T04:57:10;17.60;96.00
8715;DHT22;4394;51.208;8.904;2022-07-29T04:59:58;17.60;96.00
8715;DHT22;4394;51.208;8.904;2022-07-29T05:02:47;17.60;96.00
8715;DHT22;4394;51.208;8.904;2022-07-29T05:05:35;17.60;96.00
8715;DHT22;4394;51.208;8.904;2022-07-29T05:08:23;17.60;96.10
8715;DHT22;4394;51.208;8.904;2022-07-29T05:11:12;17.60;96.30
8715;DHT22;4394;51.208;8.904;2022-07-29T05:14:08;17.60;96.50
8715;DHT22;4394;51.208;8.904;2022-07-29T05:16:59;17.60;96.70
8715;DHT22;4394;51.208;8.904;2022-07-29T05:19:50;17.70;96.90
8715;DHT22;4394;51.208;8.904;2022-07-29T05:22:38;17.70;97.00
8715;DHT22;4394;51.208;8.904;2022-07-29T05:25:27;17.70;97.50
8715;DHT22;4394;51.208;8.904;2022-07-29T05:28:33;17.70;97.50
8715;DHT22;4394;51.208;8.904;2022-07-29T05:31:23;17.70;97.90
8715;DHT22;4394;51.208;8.904;2022-07-29T05:34:11;17.80;98.30
8715;DHT22;4394;51.208;8.904;2022-07-29T05:37:00;17.80;98.30
8715;DHT22;4394;51.208;8.904;2022-07-29T05:39:48;17.80;98.20
8715;DHT22;4394;51.208;8.904;2022-07-29T05:42:44;17.80;98.00
8715;DHT22;4394;51.208;8.904;2022-07-29T05:45:33;17.80;98.10
8715;DHT22;4394;51.208;8.904;2022-07-29T05:48:37;17.90;98.10
8715;DHT22;4394;51.208;8.904;2022-07-29T05:51:27;17.90;98.30
8715;DHT22;4394;51.208;8.904;2022-07-29T05:54:15;18.00;98.70
8715;DHT22;4394;51.208;8.904;2022-07-29T05:57:04;18.00;99.00
8715;DHT22;4394;51.208;8.904;2022-07-29T05:59:53;18.00;98.60
8715;DHT22;4394;51.208;8.904;2022-07-29T06:02:41;18.00;98.50
8715;DHT22;4394;51.208;8.904;2022-07-29T06:05:31;18.00;98.80
8715;DHT22;4394;51.208;8.904;2022-07-29T06:08:20;18.10;99.10
8715;DHT22;4394;51.208;8.904;2022-07-29T06:11:09;18.10;99.00
8715;DHT22;4394;51.208;8.904;2022-07-29T06:13:57;18.10;99.10
8715;DHT22;4394;51.208;8.904;2022-07-29T06:16:46;18.10;99.90
8715;DHT22;4394;51.208;8.904;2022-07-29T06:19:35;18.10;99.90
8715;DHT22;4394;51.208;8.904;2022-07-29T06:22:25;18.10;99.90
8715;DHT22;4394;51.208;8.904;2022-07-29T06:25:13;18.10;99.90
8715;DHT22;4394;51.208;8.904;2022-07-29T06:28:02;18.10;99.90
8715;DHT22;4394;51.208;8.904;2022-07-29T06:30:51;18.10;99.90
8715;DHT22;4394;51.208;8.904;2022-07-29T06:33:39;18.10;99.90
8715;DHT22;4394;51.208;8.904;2022-07-29T06:36:28;18.10;99.90
8715;DHT22;4394;51.208;8.904;2022-07-29T06:39:18;18.10;99.90
8715;DHT22;4394;51.208;8.904;2022-07-29T06:42:07;18.10;99.90
8715;DHT22;4394;51.208;8.904;2022-07-29T06:44:57;18.10;99.90
8715;DHT22;4394;51.208;8.904;2022-07-29T06:47:45;18.10;99.90
8715;DHT22;4394;51.208;8.904;2022-07-29T06:50:35;18.00;99.90
8715;DHT22;4394;51.208;8.904;2022-07-29T06:53:24;18.00;99.90
8715;DHT22;4394;51.208;8.904;2022-07-29T06:56:14;18.00;99.90
8715;DHT22;4394;51.208;8.904;2022-07-29T06:59:02;18.00;99.90
8715;DHT22;4394;51.208;8.904;2022-07-29T07:01:51;17.90;99.90
8715;DHT22;4394;51.208;8.904;2022-07-29T07:04:40;17.90;99.90
8715;DHT22;4394;51.208;8.904;2022-07-29T07:07:30;17.80;99.90
8715;DHT22;4394;51.208;8.904;2022-07-29T07:10:18;17.70;99.90
8715;DHT22;4394;51.208;8.904;2022-07-29T07:13:08;17.70;99.90
8715;DHT22;4394;51.208;8.904;2022-07-29T07:15:56;17.60;99.90
8715;DHT22;4394;51.208;8.904;2022-07-29T07:18:45;17.60;99.90
8715;DHT22;4394;51.208;8.904;2022-07-29T07:21:34;17.60;99.90
8715;DHT22;4394;51.208;8.904;2022-07-29T07:24:24;17.70;99.90
8715;DHT22;4394;51.208;8.904;2022-07-29T07:27:12;17.70;99.90
8715;DHT22;4394;51.208;8.904;2022-07-29T07:30:03;17.70;99.90
8715;DHT22;4394;51.208;8.904;2022-07-29T07:32:52;17.80;99.90
8715;DHT22;4394;51.208;8.904;2022-07-29T07:35:40;17.80;99.90
8715;DHT22;4394;51.208;8.904;2022-07-29T07:38:29;17.90;99.90
8715;DHT22;4394;51.208;8.904;2022-07-29T07:41:17;17.90;99.90
8715;DHT22;4394;51.208;8.904;2022-07-29T07:44:05;18.00;99.90
8715;DHT22;4394;51.208;8.904;2022-07-29T07:47:00;18.10;99.90
8715;DHT22;4394;51.208;8.904;2022-07-29T07:49:54;18.20;99.90
8715;DHT22;4394;51.208;8.904;2022-07-29T07:52:47;18.20;99.90
8715;DHT22;4394;51.208;8.904;2022-07-29T07:55:40;18.30;99.90
8715;DHT22;4394;51.208;8.904;2022-07-29T07:58:49;18.30;99.90
8715;DHT22;4394;51.208;8.904;2022-07-29T08:01:38;18.40;99.90
8715;DHT22;4394;51.208;8.904;2022-07-29T08:04:43;18.40;99.90
8715;DHT22;4394;51.208;8.904;2022-07-29T08:07:32;18.50;99.90
8715;DHT22;4394;51.208;8.904;2022-07-29T08:10:21;18.60;99.90
8715;DHT22;4394;51.208;8.904;2022-07-29T08:13:24;18.70;99.90
8715;DHT22;4394;51.208;8.904;2022-07-29T08:16:15;18.80;99.90
8715;DHT22;4394;51.208;8.904;2022-07-29T08:19:03;19.00;99.90
8715;DHT22;4394;51.208;8.904;2022-07-29T08:21:53;19.10;99.90
8715;DHT22;4394;51.208;8.904;2022-07-29T08:24:41;19.20;99.90
8715;DHT22;4394;51.208;8.904;2022-07-29T08:27:40;19.30;99.90
8715;DHT22;4394;51.208;8.904;2022-07-29T08:30:30;19.40;99.90
8715;DHT22;4394;51.208;8.904;2022-07-29T08:33:19;19.50;99.90
8715;DHT22;4394;51.208;8.904;2022-07-29T08:36:07;19.60;99.90
8715;DHT22;4394;51.208;8.904;2022-07-29T08:38:58;19.70;99.90
8715;DHT22;4394;51.208;8.904;2022-07-29T08:41:47;19.80;99.90
8715;DHT22;4394;51.208;8.904;2022-07-29T08:44:43;19.80;99.90
8715;DHT22;4394;51.208;8.904;2022-07-29T08:47:33;19.90;99.90
8715;DHT22;4394;51.208;8.904;2022-07-29T08:50:23;19.90;99.90
8715;DHT22;4394;51.208;8.904;2022-07-29T08:53:12;20.10;99.90
8715;DHT22;4394;51.208;8.904;2022-07-29T08:56:02;20.20;99.90
8715;DHT22;4394;51.208;8.904;2022-07-29T08:58:50;20.30;99.90
8715;DHT22;4394;51.208;8.904;2022-07-29T09:01:41;20.50;99.90
8715;DHT22;4394;51.208;8.904;2022-07-29T09:04:34;20.70;99.90
8715;DHT22;4394;51.208;8.904;2022-07-29T09:07:24;20.80;99.90
8715;DHT22;4394;51.208;8.904;2022-07-29T09:10:20;20.90;99.90
8715;DHT22;4394;51.208;8.904;2022-07-29T09:13:10;21.00;99.90
8715;DHT22;4394;51.208;8.904;2022-07-29T09:15:58;21.10;99.90
8715;DHT22;4394;51.208;8.904;2022-07-29T09:18:51;21.10;99.90
8715;DHT22;4394;51.208;8.904;2022-07-29T09:21:40;21.00;99.90
8715;DHT22;4394;51.208;8.904;2022-07-29T09:24:49;21.00;99.90
8715;DHT22;4394;51.208;8.904;2022-07-29T09:27:37;20.90;99.90
8715;DHT22;4394;51.208;8.904;2022-07-29T09:30:27;20.90;99.90
8715;DHT22;4394;51.208;8.904;2022-07-29T09:33:18;20.80;99.90
8715;DHT22;4394;51.208;8.904;2022-07-29T09:36:08;20.70;99.90
8715;DHT22;4394;51.208;8.904;2022-07-29T09:38:59;20.60;99.90
8715;DHT22;4394;51.208;8.904;2022-07-29T09:41:51;20.50;99.90
8715;DHT22;4394;51.208;8.904;2022-07-29T09:44:48;20.50;99.90
8715;DHT22;4394;51.208;8.904;2022-07-29T09:47:44;20.40;99.90
8715;DHT22;4394;51.208;8.904;2022-07-29T09:50:39;20.40;99.90
8715;DHT22;4394;51.208;8.904;2022-07-29T09:53:32;20.50;99.90
8715;DHT22;4394;51.208;8.904;2022-07-29T09:56:36;20.50;99.90
8715;DHT22;4394;51.208;8.904;2022-07-29T09:59:26;20.60;99.90
8715;DHT22;4394;51.208;8.904;2022-07-29T10:02:15;20.80;99.90
8715;DHT22;4394;51.208;8.904;2022-07-29T10:05:19;21.00;99.90
8715;DHT22;4394;51.208;8.904;2022-07-29T10:08:10;21.10;99.90
8715;DHT22;4394;51.208;8.904;2022-07-29T10:11:09;21.20;99.90
8715;DHT22;4394;51.208;8.904;2022-07-29T10:13:57;21.20;99.90
8715;DHT22;4394;51.208;8.904;2022-07-29T10:16:46;21.30;99.90
8715;DHT22;4394;51.208;8.904;2022-07-29T10:19:38;21.40;99.90
8715;DHT22;4394;51.208;8.904;2022-07-29T10:22:28;21.50;99.90
8715;DHT22;4394;51.208;8.904;2022-07-29T10:25:36;21.60;99.90
8715;DHT22;4394;51.208;8.904;2022-07-29T10:28:25;21.60;99.90
8715;DHT22;4394;51.208;8.904;2022-07-29T10:31:21;21.70;99.90
8715;DHT22;4394;51.208;8.904;2022-07-29T10:34:23;21.80;99.90
8715;DHT22;4394;51.208;8.904;2022-07-29T10:37:22;21.80;99.90
8715;DHT22;4394;51.208;8.904;2022-07-29T10:40:28;21.90;99.90
8715;DHT22;4394;51.208;8.904;2022-07-29T10:43:45;22.00;99.90
8715;DHT22;4394;51.208;8.904;2022-07-29T10:46:40;22.10;99.90
8715;DHT22;4394;51.208;8.904;2022-07-29T10:49:29;22.10;99.90
8715;DHT22;4394;51.208;8.904;2022-07-29T10:52:17;22.20;99.90
8715;DHT22;4394;51.208;8.904;2022-07-29T10:55:32;22.30;99.90
8715;DHT22;4394;51.208;8.904;2022-07-29T10:58:22;22.50;99.90
8715;DHT22;4394;51.208;8.904;2022-07-29T11:01:28;22.60;99.90
8715;DHT22;4394;51.208;8.904;2022-07-29T11:04:59;22.80;99.90
8715;DHT22;4394;51.208;8.904;2022-07-29T11:08:23;23.20;99.90
8715;DHT22;4394;51.208;8.904;2022-07-29T11:11:33;23.30;99.90
8715;DHT22;4394;51.208;8.904;2022-07-29T11:14:57;23.30;99.90
8715;DHT22;4394;51.208;8.904;2022-07-29T11:18:05;23.30;99.90
8715;DHT22;4394;51.208;8.904;2022-07-29T11:21:01;23.30;99.90
8715;DHT22;4394;51.208;8.904;2022-07-29T11:23:49;23.30;99.90
8715;DHT22;4394;51.208;8.904;2022-07-29T11:26:40;23.60;99.90
8715;DHT22;4394;51.208;8.904;2022-07-29T11:29:31;23.80;99.90
8715;DHT22;4394;51.208;8.904;2022-07-29T11:32:35;24.00;99.90
8715;DHT22;4394;51.208;8.904;2022-07-29T11:35:24;24.30;99.90
8715;DHT22;4394;51.208;8.904;2022-07-29T11:38:26;24.60;99.90
8715;DHT22;4394;51.208;8.904;2022-07-29T11:41:22;24.90;99.90
8715;DHT22;4394;51.208;8.904;2022-07-29T11:44:13;25.30;99.90
8715;DHT22;4394;51.208;8.904;2022-07-29T11:47:04;25.50;99.70
8715;DHT22;4394;51.208;8.904;2022-07-29T11:49:53;25.70;99.00
8715;DHT22;4394;51.208;8.904;2022-07-29T11:52:46;25.80;98.10
8715;DHT22;4394;51.208;8.904;2022-07-29T11:55:37;25.80;97.40
8715;DHT22;4394;51.208;8.904;2022-07-29T11:58:38;25.80;97.70
8715;DHT22;4394;51.208;8.904;2022-07-29T12:01:28;25.90;98.00
8715;DHT22;4394;51.208;8.904;2022-07-29T12:04:19;26.00;98.10
8715;DHT22;4394;51.208;8.904;2022-07-29T12:07:07;26.10;97.30
8715;DHT22;4394;51.208;8.904;2022-07-29T12:10:03;26.20;96.60
8715;DHT22;4394;51.208;8.904;2022-07-29T12:12:57;26.30;95.60
8715;DHT22;4394;51.208;8.904;2022-07-29T12:15:54;26.50;95.80
8715;DHT22;4394;51.208;8.904;2022-07-29T12:18:56;26.70;94.00
8715;DHT22;4394;51.208;8.904;2022-07-29T12:21:46;26.80;92.90
8715;DHT22;4394;51.208;8.904;2022-07-29T12:24:43;26.90;92.80
8715;DHT22;4394;51.208;8.904;2022-07-29T12:27:32;27.00;92.60
8715;DHT22;4394;51.208;8.904;2022-07-29T12:30:35;27.20;92.90
8715;DHT22;4394;51.208;8.904;2022-07-29T12:33:29;27.30;90.80
8715;DHT22;4394;51.208;8.904;2022-07-29T12:36:20;27.30;91.90
8715;DHT22;4394;51.208;8.904;2022-07-29T12:39:09;27.50;91.80
8715;DHT22;4394;51.208;8.904;2022-07-29T12:41:59;27.60;92.00
8715;DHT22;4394;51.208;8.904;2022-07-29T12:44:51;27.90;92.70
8715;DHT22;4394;51.208;8.904;2022-07-29T12:47:51;28.00;91.90
8715;DHT22;4394;51.208;8.904;2022-07-29T12:50:55;28.10;91.30
8715;DHT22;4394;51.208;8.904;2022-07-29T12:54:04;28.30;90.10
8715;DHT22;4394;51.208;8.904;2022-07-29T12:56:59;28.50;90.00
8715;DHT22;4394;51.208;8.904;2022-07-29T13:00:05;28.50;90.20
8715;DHT22;4394;51.208;8.904;2022-07-29T13:02:57;28.50;87.40
8715;DHT22;4394;51.208;8.904;2022-07-29T13:05:46;28.60;90.60
8715;DHT22;4394;51.208;8.904;2022-07-29T13:08:36;28.70;89.70
8715;DHT22;4394;51.208;8.904;2022-07-29T13:11:30;28.90;89.60
8715;DHT22;4394;51.208;8.904;2022-07-29T13:14:31;29.00;83.00
8715;DHT22;4394;51.208;8.904;2022-07-29T13:17:22;29.00;85.70
8715;DHT22;4394;51.208;8.904;2022-07-29T13:20:12;29.10;87.00
8715;DHT22;4394;51.208;8.904;2022-07-29T13:23:01;29.20;84.70
8715;DHT22;4394;51.208;8.904;2022-07-29T13:25:50;29.40;84.40
8715;DHT22;4394;51.208;8.904;2022-07-29T13:28:42;29.40;81.90
8715;DHT22;4394;51.208;8.904;2022-07-29T13:31:31;29.60;81.50
8715;DHT22;4394;51.208;8.904;2022-07-29T13:34:21;29.80;81.50
8715;DHT22;4394;51.208;8.904;2022-07-29T13:37:11;29.90;81.60
8715;DHT22;4394;51.208;8.904;2022-07-29T13:40:01;30.00;82.60
8715;DHT22;4394;51.208;8.904;2022-07-29T13:42:51;30.10;80.50
8715;DHT22;4394;51.208;8.904;2022-07-29T13:45:41;30.20;77.50
8715;DHT22;4394;51.208;8.904;2022-07-29T13:48:29;30.10;76.10
8715;DHT22;4394;51.208;8.904;2022-07-29T13:51:18;29.90;76.20
8715;DHT22;4394;51.208;8.904;2022-07-29T13:54:06;29.80;76.20
8715;DHT22;4394;51.208;8.904;2022-07-29T13:56:55;29.90;77.50
8715;DHT22;4394;51.208;8.904;2022-07-29T13:59:44;30.00;75.50
8715;DHT22;4394;51.208;8.904;2022-07-29T14:02:41;30.00;74.70
8715;DHT22;4394;51.208;8.904;2022-07-29T14:05:29;29.90;76.60
8715;DHT22;4394;51.208;8.904;2022-07-29T14:08:17;29.90;76.20
8715;DHT22;4394;51.208;8.904;2022-07-29T14:11:05;30.20;75.40
8715;DHT22;4394;51.208;8.904;2022-07-29T14:13:53;30.30;75.80
8715;DHT22;4394;51.208;8.904;2022-07-29T14:16:41;30.50;75.60
8715;DHT22;4394;51.208;8.904;2022-07-29T14:19:39;30.70;74.40
8715;DHT22;4394;51.208;8.904;2022-07-29T14:22:27;30.90;72.80
8715;DHT22;4394;51.208;8.904;2022-07-29T14:25:16;31.10;73.90
8715;DHT22;4394;51.208;8.904;2022-07-29T14:28:07;31.20;71.30
8715;DHT22;4394;51.208;8.904;2022-07-29T14:30:57;31.20;70.10
8715;DHT22;4394;51.208;8.904;2022-07-29T14:33:46;31.00;68.20
8715;DHT22;4394;51.208;8.904;2022-07-29T14:36:36;30.90;69.40
8715;DHT22;4394;51.208;8.904;2022-07-29T14:39:25;30.90;68.80
8715;DHT22;4394;51.208;8.904;2022-07-29T14:42:18;31.00;69.60
8715;DHT22;4394;51.208;8.904;2022-07-29T14:45:07;30.80;67.90
8715;DHT22;4394;51.208;8.904;2022-07-29T14:47:56;30.60;67.30
8715;DHT22;4394;51.208;8.904;2022-07-29T14:50:44;30.60;68.30
8715;DHT22;4394;51.208;8.904;2022-07-29T14:53:33;30.70;69.40
8715;DHT22;4394;51.208;8.904;2022-07-29T14:56:22;30.60;67.20
8715;DHT22;4394;51.208;8.904;2022-07-29T14:59:31;30.60;68.70
8715;DHT22;4394;51.208;8.904;2022-07-29T15:02:19;30.80;67.70
8715;DHT22;4394;51.208;8.904;2022-07-29T15:05:07;31.00;66.60
8715;DHT22;4394;51.208;8.904;2022-07-29T15:07:56;31.20;67.10
8715;DHT22;4394;51.208;8.904;2022-07-29T15:10:45;31.10;64.80
8715;DHT22;4394;51.208;8.904;2022-07-29T15:13:34;30.90;65.30
8715;DHT22;4394;51.208;8.904;2022-07-29T15:16:23;30.70;65.70
8715;DHT22;4394;51.208;8.904;2022-07-29T15:19:11;30.50;63.40
8715;DHT22;4394;51.208;8.904;2022-07-29T15:22:00;30.40;65.30
8715;DHT22;4394;51.208;8.904;2022-07-29T15:24:49;30.20;67.90
8715;DHT22;4394;51.208;8.904;2022-07-29T15:27:38;30.10;67.70
8715;DHT22;4394;51.208;8.904;2022-07-29T15:30:35;29.90;69.60
8715;DHT22;4394;51.208;8.904;2022-07-29T15:33:27;29.70;69.80
8715;DHT22;4394;51.208;8.904;2022-07-29T15:36:16;29.50;68.70
8715;DHT22;4394;51.208;8.904;2022-07-29T15:39:25;29.30;69.70
8715;DHT22;4394;51.208;8.904;2022-07-29T15:42:13;29.20;71.50
8715;DHT22;4394;51.208;8.904;2022-07-29T15:45:06;29.10;70.60
8715;DHT22;4394;51.208;8.904;2022-07-29T15:47:54;29.00;71.10
8715;DHT22;4394;51.208;8.904;2022-07-29T15:50:43;28.80;71.00
8715;DHT22;4394;51.208;8.904;2022-07-29T15:53:33;28.70;71.00
8715;DHT22;4394;51.208;8.904;2022-07-29T15:56:22;28.60;71.80
8715;DHT22;4394;51.208;8.904;2022-07-29T15:59:10;28.50;71.50
8715;DHT22;4394;51.208;8.904;2022-07-29T16:02:10;28.30;71.10
8715;DHT22;4394;51.208;8.904;2022-07-29T16:04:58;28.20;72.70
8715;DHT22;4394;51.208;8.904;2022-07-29T16:07:47;28.10;72.30
8715;DHT22;4394;51.208;8.904;2022-07-29T16:10:35;27.90;71.20
8715;DHT22;4394;51.208;8.904;2022-07-29T16:13:23;27.80;71.90
8715;DHT22;4394;51.208;8.904;2022-07-29T16:16:12;27.60;71.70
8715;DHT22;4394;51.208;8.904;2022-07-29T16:19:03;27.60;72.50
8715;DHT22;4394;51.208;8.904;2022-07-29T16:21:51;27.50;71.20
8715;DHT22;4394;51.208;8.904;2022-07-29T16:24:45;27.30;72.80
8715;DHT22;4394;51.208;8.904;2022-07-29T16:27:34;27.30;74.40
8715;DHT22;4394;51.208;8.904;2022-07-29T16:30:24;27.20;75.50
8715;DHT22;4394;51.208;8.904;2022-07-29T16:33:13;27.00;75.50
8715;DHT22;4394;51.208;8.904;2022-07-29T16:36:03;27.00;75.00
8715;DHT22;4394;51.208;8.904;2022-07-29T16:38:51;26.90;74.10
8715;DHT22;4394;51.208;8.904;2022-07-29T16:41:40;26.70;74.20
8715;DHT22;4394;51.208;8.904;2022-07-29T16:44:29;26.60;75.30
8715;DHT22;4394;51.208;8.904;2022-07-29T16:47:18;26.50;78.60
8715;DHT22;4394;51.208;8.904;2022-07-29T16:50:10;26.10;85.00
8715;DHT22;4394;51.208;8.904;2022-07-29T16:53:00;25.30;91.10
8715;DHT22;4394;51.208;8.904;2022-07-29T16:55:48;24.80;93.90
8715;DHT22;4394;51.208;8.904;2022-07-29T16:58:37;24.30;95.90
8715;DHT22;4394;51.208;8.904;2022-07-29T17:01:29;23.90;98.20
8715;DHT22;4394;51.208;8.904;2022-07-29T17:04:17;23.50;99.90
8715;DHT22;4394;51.208;8.904;2022-07-29T17:07:08;23.00;99.90
8715;DHT22;4394;51.208;8.904;2022-07-29T17:09:58;22.90;99.90
8715;DHT22;4394;51.208;8.904;2022-07-29T17:12:50;22.50;99.90
8715;DHT22;4394;51.208;8.904;2022-07-29T17:15:38;22.40;99.90
8715;DHT22;4394;51.208;8.904;2022-07-29T17:18:28;22.30;99.90
8715;DHT22;4394;51.208;8.904;2022-07-29T17:21:16;22.30;99.90
8715;DHT22;4394;51.208;8.904;2022-07-29T17:24:04;22.30;99.90
8715;DHT22;4394;51.208;8.904;2022-07-29T17:26:54;22.40;99.90
8715;DHT22;4394;51.208;8.904;2022-07-29T17:29:42;22.40;99.90
8715;DHT22;4394;51.208;8.904;2022-07-29T17:32:30;22.30;99.90
8715;DHT22;4394;51.208;8.904;2022-07-29T17:35:22;22.20;99.90
8715;DHT22;4394;51.208;8.904;2022-07-29T17:38:27;22.20;99.90
8715;DHT22;4394;51.208;8.904;2022-07-29T17:41:15;22.10;99.90
8715;DHT22;4394;51.208;8.904;2022-07-29T17:44:05;22.00;99.90
8715;DHT22;4394;51.208;8.904;2022-07-29T17:46:52;22.00;99.90
8715;DHT22;4394;51.208;8.904;2022-07-29T17:49:41;21.90;99.90
8715;DHT22;4394;51.208;8.904;2022-07-29T17:52:29;21.70;99.90
8715;DHT22;4394;51.208;8.904;2022-07-29T17:55:18;21.70;99.90
8715;DHT22;4394;51.208;8.904;2022-07-29T17:58:06;21.50;99.90
8715;DHT22;4394;51.208;8.904;2022-07-29T18:00:56;21.50;99.90
8715;DHT22;4394;51.208;8.904;2022-07-29T18:03:45;21.50;99.90
8715;DHT22;4394;51.208;8.904;2022-07-29T18:06:34;21.40;99.90
8715;DHT22;4394;51.208;8.904;2022-07-29T18:09:22;21.30;99.90
8715;DHT22;4394;51.208;8.904;2022-07-29T18:12:10;21.30;99.90
8715;DHT22;4394;51.208;8.904;2022-07-29T18:14:58;21.20;99.90
8715;DHT22;4394;51.208;8.904;2022-07-29T18:17:48;21.00;99.90
8715;DHT22;4394;51.208;8.904;2022-07-29T18:20:43;20.90;99.90
8715;DHT22;4394;51.208;8.904;2022-07-29T18:23:32;20.90;99.90
8715;DHT22;4394;51.208;8.904;2022-07-29T18:26:20;20.80;99.90
8715;DHT22;4394;51.208;8.904;2022-07-29T18:29:16;20.80;99.90
8715;DHT22;4394;51.208;8.904;2022-07-29T18:32:05;20.80;99.90
8715;DHT22;4394;51.208;8.904;2022-07-29T18:34:54;20.80;99.90
8715;DHT22;4394;51.208;8.904;2022-07-29T18:37:43;20.80;99.90
8715;DHT22;4394;51.208;8.904;2022-07-29T18:40:48;20.70;99.90
8715;DHT22;4394;51.208;8.904;2022-07-29T18:43:38;20.70;99.90
8715;DHT22;4394;51.208;8.904;2022-07-29T18:46:26;20.60;99.90